createdAt,value
2023-01-08T00:00:52.809Z,100501.28
2023-01-08T00:03:19.552Z,100493.09
2023-01-08T00:05:46.153Z,100481.06
2023-01-08T00:08:12.868Z,100484.34
2023-01-08T00:10:39.458Z,100484.34
2023-01-08T00:13:07.178Z,100483.19
2023-01-08T00:15:34.368Z,100483.41
2023-01-08T00:18:00.906Z,100488.03
2023-01-08T00:20:27.911Z,100484.78
2023-01-08T00:22:54.447Z,100489.00
2023-01-08T00:25:21.260Z,100474.22
2023-01-08T00:27:47.740Z,100475.13
2023-01-08T00:30:14.298Z,100463.84
2023-01-08T00:32:40.847Z,100456.47
2023-01-08T00:35:07.590Z,100459.81
2023-01-08T00:37:34.123Z,100448.00
2023-01-08T00:40:00.820Z,100440.28
2023-01-08T00:42:27.307Z,100447.88
2023-01-08T00:44:53.902Z,100451.50
2023-01-08T00:47:20.381Z,100448.78
2023-01-08T00:49:46.899Z,100447.75
2023-01-08T00:52:13.422Z,100452.34
2023-01-08T00:54:40.018Z,100454.59
2023-01-08T00:57:06.579Z,100440.41
2023-01-08T00:59:33.144Z,100434.59
2023-01-08T01:01:59.863Z,100436.47
2023-01-08T01:04:26.682Z,100422.75
2023-01-08T01:06:53.217Z,100415.81
2023-01-08T01:09:19.748Z,100417.50
2023-01-08T01:11:46.303Z,100419.22
2023-01-08T01:14:12.826Z,100424.03
2023-01-08T01:16:41.325Z,100419.97
2023-01-08T01:19:07.875Z,100425.25
2023-01-08T01:21:34.515Z,100417.59
2023-01-08T01:24:03.292Z,100420.66
2023-01-08T01:26:31.115Z,100420.41
2023-01-08T01:28:58.546Z,100419.34
2023-01-08T01:31:26.615Z,100417.34
2023-01-08T01:33:53.110Z,100407.81
2023-01-08T01:36:23.672Z,100410.19
2023-01-08T01:38:52.511Z,100413.19
2023-01-08T01:41:39.550Z,100421.03
2023-01-08T01:44:33.992Z,100418.06
2023-01-08T01:47:09.739Z,100410.66
2023-01-08T01:49:36.774Z,100398.66
2023-01-08T01:52:06.009Z,100392.47
2023-01-08T01:54:32.636Z,100383.94
2023-01-08T01:57:00.867Z,100396.97
2023-01-08T01:59:27.727Z,100398.53
2023-01-08T02:01:54.411Z,100393.78
2023-01-08T02:04:21.096Z,100386.91
2023-01-08T02:06:55.953Z,100381.41
2023-01-08T02:09:42.075Z,100387.13
2023-01-08T02:12:16.526Z,100390.25
2023-01-08T02:15:01.363Z,100384.03
2023-01-08T02:17:38.995Z,100375.31
2023-01-08T02:20:21.583Z,100371.38
2023-01-08T02:23:05.679Z,100350.53
2023-01-08T02:26:03.201Z,100366.72
2023-01-08T02:28:31.465Z,100357.97
2023-01-08T02:30:58.235Z,100344.22
2023-01-08T02:33:27.809Z,100338.59
2023-01-08T02:36:14.118Z,100353.59
2023-01-08T02:38:47.763Z,100352.09
2023-01-08T02:41:15.026Z,100350.31
2023-01-08T02:43:48.046Z,100338.97
2023-01-08T02:46:17.997Z,100340.41
2023-01-08T02:48:54.728Z,100332.09
2023-01-08T02:51:28.997Z,100334.84
2023-01-08T02:53:59.991Z,100319.75
2023-01-08T02:56:33.367Z,100315.22
2023-01-08T02:59:01.004Z,100315.66
2023-01-08T03:01:28.496Z,100311.88
2023-01-08T03:03:57.435Z,100304.28
2023-01-08T03:06:25.345Z,100295.41
2023-01-08T03:08:52.955Z,100311.09
2023-01-08T03:11:21.437Z,100313.66
2023-01-08T03:14:02.162Z,100311.66
2023-01-08T03:16:37.106Z,100312.53
2023-01-08T03:19:14.339Z,100310.53
2023-01-08T03:21:42.603Z,100292.53
2023-01-08T03:24:12.785Z,100300.16
2023-01-08T03:26:41.404Z,100298.94
2023-01-08T03:29:12.012Z,100294.03
2023-01-08T03:31:39.101Z,100287.72
2023-01-08T03:34:06.237Z,100291.25
2023-01-08T03:36:33.047Z,100287.28
2023-01-08T03:39:01.514Z,100289.97
2023-01-08T03:41:29.875Z,100280.97
2023-01-08T03:43:56.844Z,100281.09
2023-01-08T03:46:32.675Z,100286.22
2023-01-08T03:48:59.903Z,100283.84
2023-01-08T03:51:26.894Z,100288.94
2023-01-08T03:53:56.992Z,100293.28
2023-01-08T03:56:23.509Z,100286.06
2023-01-08T03:58:50.073Z,100285.28
2023-01-08T04:01:16.692Z,100289.09
2023-01-08T04:03:43.262Z,100292.09
2023-01-08T04:06:09.726Z,100290.88
2023-01-08T04:08:36.192Z,100295.88
2023-01-08T04:11:02.657Z,100286.84
2023-01-08T04:13:29.137Z,100287.31
2023-01-08T04:15:55.754Z,100278.84
2023-01-08T04:18:22.314Z,100296.81
2023-01-08T04:20:48.832Z,100284.88
2023-01-08T04:23:15.404Z,100286.13
2023-01-08T04:25:41.973Z,100289.78
2023-01-08T04:28:08.798Z,100279.69
2023-01-08T04:30:35.304Z,100268.31
2023-01-08T04:33:01.856Z,100259.59
2023-01-08T04:35:28.365Z,100265.09
2023-01-08T04:37:54.834Z,100262.53
2023-01-08T04:40:21.344Z,100258.41
2023-01-08T04:42:47.824Z,100252.28
2023-01-08T04:45:14.324Z,100255.41
2023-01-08T04:47:40.849Z,100254.78
2023-01-08T04:50:07.567Z,100259.47
2023-01-08T04:52:34.061Z,100253.16
2023-01-08T04:55:00.632Z,100267.59
2023-01-08T04:57:27.093Z,100260.91
2023-01-08T04:59:53.584Z,100251.47
2023-01-08T05:02:20.287Z,100247.03
2023-01-08T05:04:47.967Z,100241.91
2023-01-08T05:07:14.436Z,100242.72
2023-01-08T05:09:40.938Z,100245.84
2023-01-08T05:12:07.445Z,100233.78
2023-01-08T05:14:33.970Z,100246.72
2023-01-08T05:17:00.472Z,100240.03
2023-01-08T05:19:26.980Z,100240.47
2023-01-08T05:21:53.507Z,100237.00
2023-01-08T05:24:19.990Z,100239.69
2023-01-08T05:26:46.517Z,100237.59
2023-01-08T05:29:13.013Z,100229.19
2023-01-08T05:31:39.492Z,100221.06
2023-01-08T05:34:06.010Z,100229.78
2023-01-08T05:36:32.545Z,100226.31
2023-01-08T05:38:59.071Z,100216.47
2023-01-08T05:41:25.699Z,100216.59
2023-01-08T05:43:52.247Z,100216.47
2023-01-08T05:46:18.753Z,100211.53
2023-01-08T05:48:45.279Z,100212.19
2023-01-08T05:51:11.788Z,100218.41
2023-01-08T05:53:38.543Z,100212.50
2023-01-08T05:56:09.335Z,100212.50
2023-01-08T05:58:36.271Z,100209.28
2023-01-08T06:01:06.522Z,100215.31
2023-01-08T06:03:33.061Z,100205.47
2023-01-08T06:06:01.078Z,100212.94
2023-01-08T06:08:28.877Z,100214.31
2023-01-08T06:10:59.543Z,100205.91
2023-01-08T06:13:26.498Z,100202.47
2023-01-08T06:15:53.077Z,100201.78
2023-01-08T06:18:19.726Z,100188.56
2023-01-08T06:20:46.199Z,100192.03
2023-01-08T06:23:12.694Z,100195.47
2023-01-08T06:25:39.163Z,100194.63
2023-01-08T06:28:05.655Z,100190.81
2023-01-08T06:30:32.163Z,100193.28
2023-01-08T06:32:59.671Z,100191.03
2023-01-08T06:35:26.693Z,100191.72
2023-01-08T06:37:56.224Z,100189.03
2023-01-08T06:40:23.840Z,100183.44
2023-01-08T06:42:50.332Z,100197.22
2023-01-08T06:45:16.884Z,100186.13
2023-01-08T06:47:43.430Z,100183.56
2023-01-08T06:50:09.991Z,100184.09
2023-01-08T06:52:36.618Z,100189.75
2023-01-08T06:55:04.856Z,100187.91
2023-01-08T06:57:31.605Z,100186.59
2023-01-08T06:59:58.120Z,100186.81
2023-01-08T07:02:25.689Z,100192.44
2023-01-08T07:04:52.407Z,100192.19
2023-01-08T07:07:18.905Z,100188.59
2023-01-08T07:09:45.409Z,100185.47
2023-01-08T07:12:15.229Z,100186.59
2023-01-08T07:14:41.927Z,100186.59
2023-01-08T07:17:08.720Z,100188.59
2023-01-08T07:19:35.386Z,100185.00
2023-01-08T07:22:04.586Z,100190.03
2023-01-08T07:24:31.405Z,100198.94
2023-01-08T07:26:58.030Z,100204.97
2023-01-08T07:29:24.598Z,100208.34
2023-01-08T07:31:51.099Z,100210.59
2023-01-08T07:34:17.783Z,100212.72
2023-01-08T07:36:44.267Z,100212.59
2023-01-08T07:39:10.790Z,100210.38
2023-01-08T07:41:37.244Z,100210.84
2023-01-08T07:44:04.680Z,100199.38
2023-01-08T07:46:31.289Z,100203.31
2023-01-08T07:48:57.998Z,100207.22
2023-01-08T07:51:24.746Z,100203.53
2023-01-08T07:53:51.465Z,100205.53
2023-01-08T07:56:18.034Z,100198.56
2023-01-08T07:58:44.545Z,100205.63
2023-01-08T08:01:11.458Z,100194.88
2023-01-08T08:03:39.162Z,100188.81
2023-01-08T08:06:05.940Z,100186.91
2023-01-08T08:08:32.421Z,100190.50
2023-01-08T08:10:59.012Z,100189.72
2023-01-08T08:13:25.577Z,100197.34
2023-01-08T08:15:52.182Z,100199.69
2023-01-08T08:18:19.056Z,100197.00
2023-01-08T08:20:45.586Z,100193.31
2023-01-08T08:23:14.856Z,100194.00
2023-01-08T08:25:42.426Z,100182.00
2023-01-08T08:28:10.798Z,100183.44
2023-01-08T08:30:38.748Z,100171.56
2023-01-08T08:33:06.684Z,100172.69
2023-01-08T08:35:34.240Z,100169.09
2023-01-08T08:38:01.005Z,100155.50
2023-01-08T08:40:27.903Z,100159.22
2023-01-08T08:43:03.354Z,100164.94
2023-01-08T08:45:30.113Z,100161.34
2023-01-08T08:47:56.761Z,100164.47
2023-01-08T08:50:23.281Z,100166.97
2023-01-08T08:52:49.899Z,100164.38
2023-01-08T08:55:17.618Z,100162.38
2023-01-08T08:57:47.283Z,100154.41
2023-01-08T09:00:14.991Z,100152.25
2023-01-08T09:02:41.638Z,100150.78
2023-01-08T09:05:08.388Z,100148.19
2023-01-08T09:07:34.865Z,100136.78
2023-01-08T09:10:01.425Z,100122.19
2023-01-08T09:12:27.972Z,100120.38
2023-01-08T09:14:54.915Z,100118.00
2023-01-08T09:17:21.682Z,100125.50
2023-01-08T09:19:48.246Z,100122.94
2023-01-08T09:22:14.727Z,100125.03
2023-01-08T09:24:41.303Z,100137.97
2023-01-08T09:27:09.644Z,100145.72
2023-01-08T09:29:37.660Z,100156.13
2023-01-08T09:32:07.221Z,100146.47
2023-01-08T09:34:36.100Z,100144.16
2023-01-08T09:37:03.351Z,100154.34
2023-01-08T09:39:29.879Z,100156.38
2023-01-08T09:41:57.331Z,100158.06
2023-01-08T09:44:27.332Z,100166.56
2023-01-08T09:46:55.701Z,100176.69
2023-01-08T09:49:25.686Z,100180.38
2023-01-08T09:51:52.506Z,100185.63
2023-01-08T09:54:26.352Z,100180.28
2023-01-08T09:56:52.926Z,100179.59
2023-01-08T09:59:20.135Z,100170.41
2023-01-08T10:01:47.925Z,100169.84
2023-01-08T10:04:20.258Z,100158.97
2023-01-08T10:06:51.532Z,100158.53
2023-01-08T10:09:21.131Z,100154.28
2023-01-08T10:11:48.680Z,100158.19
2023-01-08T10:14:24.329Z,100147.66
2023-01-08T10:16:55.420Z,100138.34
2023-01-08T10:19:22.206Z,100139.25
2023-01-08T10:21:48.830Z,100137.03
2023-01-08T10:24:15.563Z,100132.75
2023-01-08T10:26:42.177Z,100130.41
2023-01-08T10:29:12.671Z,100136.78
2023-01-08T10:31:47.917Z,100135.78
2023-01-08T10:34:41.611Z,100126.59
2023-01-08T10:37:37.451Z,100120.53
2023-01-08T10:40:20.923Z,100111.00
2023-01-08T10:42:48.662Z,100112.56
2023-01-08T10:45:20.360Z,100118.19
2023-01-08T10:47:48.783Z,100118.16
2023-01-08T10:50:28.143Z,100111.13
2023-01-08T10:53:03.975Z,100105.19
2023-01-08T10:55:32.395Z,100115.94
2023-01-08T10:58:04.254Z,100102.50
2023-01-08T11:00:34.129Z,100103.38
2023-01-08T11:03:04.021Z,100103.03
2023-01-08T11:05:33.619Z,100096.53
2023-01-08T11:08:01.271Z,100092.38
2023-01-08T11:10:29.016Z,100087.72
2023-01-08T11:12:58.180Z,100082.31
2023-01-08T11:15:29.512Z,100089.63
2023-01-08T11:18:04.923Z,100085.22
2023-01-08T11:20:31.915Z,100085.94
2023-01-08T11:23:16.368Z,100072.94
2023-01-08T11:25:45.776Z,100070.50
2023-01-08T11:28:16.458Z,100064.16
2023-01-08T11:30:50.220Z,100055.34
2023-01-08T11:33:24.103Z,100051.38
2023-01-08T11:35:54.532Z,100056.63
2023-01-08T11:38:21.013Z,100062.84
2023-01-08T11:40:55.572Z,100063.91
2023-01-08T11:43:24.878Z,100069.16
2023-01-08T11:46:16.736Z,100064.16
2023-01-08T11:48:52.949Z,100059.59
2023-01-08T11:52:13.045Z,100051.16
2023-01-08T11:54:54.640Z,100047.34
2023-01-08T11:57:37.358Z,100048.66
2023-01-08T12:00:35.888Z,100042.66
2023-01-08T12:03:04.037Z,100031.81
2023-01-08T12:05:54.950Z,100033.28
2023-01-08T12:08:44.204Z,100021.53
2023-01-08T12:11:13.664Z,100021.28
2023-01-08T12:14:17.177Z,100012.78
2023-01-08T12:17:14.603Z,100031.16
2023-01-08T12:19:58.211Z,100022.63
2023-01-08T12:22:52.738Z,100009.69
2023-01-08T12:25:25.958Z,100007.31
2023-01-08T12:28:17.770Z,100006.72
2023-01-08T12:31:15.161Z,100006.88
2023-01-08T12:33:48.646Z,100006.81
2023-01-08T12:36:26.465Z,100024.28
2023-01-08T12:38:57.688Z,100013.31
2023-01-08T12:41:24.917Z,100007.94
2023-01-08T12:43:56.799Z,100012.19
2023-01-08T12:46:26.274Z,100009.22
2023-01-08T12:48:53.966Z,100006.09
2023-01-08T12:51:28.855Z,100004.59
2023-01-08T12:54:07.095Z,100007.31
2023-01-08T12:56:45.904Z,100006.28
2023-01-08T12:59:31.437Z,100007.69
2023-01-08T13:02:24.659Z,100002.09
2023-01-08T13:04:51.704Z,99997.84
2023-01-08T13:07:23.211Z,99990.84
2023-01-08T13:09:57.780Z,100003.13
2023-01-08T13:12:33.464Z,100001.16
2023-01-08T13:15:00.162Z,100000.00
2023-01-08T13:17:27.673Z,99991.03
2023-01-08T13:19:56.424Z,99987.66
2023-01-08T13:22:31.312Z,99991.91
2023-01-08T13:25:27.386Z,99984.97
2023-01-08T13:27:53.960Z,99978.44
2023-01-08T13:30:38.340Z,99974.34
2023-01-08T13:33:26.002Z,99972.16
2023-01-08T13:36:06.654Z,99971.06
2023-01-08T13:38:33.200Z,99977.81
2023-01-08T13:41:00.737Z,99970.78
2023-01-08T13:43:30.409Z,99973.97
2023-01-08T13:45:59.969Z,99974.41
2023-01-08T13:48:36.529Z,99964.34
2023-01-08T13:51:03.629Z,99965.91
2023-01-08T13:53:30.447Z,99965.81
2023-01-08T13:56:02.194Z,99964.41
2023-01-08T13:58:35.577Z,99961.81
2023-01-08T14:01:03.243Z,99957.56
2023-01-08T14:03:35.998Z,99958.22
2023-01-08T14:06:19.173Z,99951.28
2023-01-08T14:08:49.973Z,99955.78
2023-01-08T14:11:21.289Z,99956.25
2023-01-08T14:13:48.674Z,99951.88
2023-01-08T14:16:17.202Z,99951.13
2023-01-08T14:18:44.686Z,99956.84
2023-01-08T14:21:15.024Z,99949.28
2023-01-08T14:23:45.625Z,99940.50
2023-01-08T14:26:47.378Z,99950.41
2023-01-08T14:29:15.842Z,99943.78
2023-01-08T14:31:47.222Z,99945.00
2023-01-08T14:34:14.715Z,99954.78
2023-01-08T14:36:42.338Z,99948.25
2023-01-08T14:39:12.906Z,99951.78
2023-01-08T14:42:00.361Z,99950.53
2023-01-08T14:44:36.599Z,99948.66
2023-01-08T14:47:03.841Z,99952.94
2023-01-08T14:49:32.653Z,99951.44
2023-01-08T14:52:00.960Z,99942.94
2023-01-08T14:54:31.669Z,99944.34
2023-01-08T14:57:00.841Z,99943.19
2023-01-08T14:59:33.259Z,99936.69
2023-01-08T15:02:01.603Z,99938.69
2023-01-08T15:04:29.752Z,99939.19
2023-01-08T15:07:20.290Z,99937.56
2023-01-08T15:09:56.614Z,99939.19
2023-01-08T15:12:29.015Z,99936.84
2023-01-08T15:14:58.214Z,99943.47
2023-01-08T15:17:28.064Z,99937.56
2023-01-08T15:19:56.476Z,99934.94
2023-01-08T15:22:25.947Z,99941.81
2023-01-08T15:24:58.667Z,99935.47
2023-01-08T15:27:25.544Z,99939.28
2023-01-08T15:29:59.790Z,99941.19
2023-01-08T15:32:34.914Z,99934.66
2023-01-08T15:35:01.526Z,99937.28
2023-01-08T15:37:28.352Z,99937.09
2023-01-08T15:39:54.869Z,99937.34
2023-01-08T15:42:46.150Z,99938.50
2023-01-08T15:45:18.309Z,99937.53
2023-01-08T15:47:44.928Z,99944.84
2023-01-08T15:50:11.594Z,99948.41
2023-01-08T15:52:40.672Z,99947.81
2023-01-08T15:55:08.137Z,99954.06
2023-01-08T15:57:34.760Z,99941.53
2023-01-08T16:00:02.430Z,99937.66
2023-01-08T16:02:40.752Z,99933.63
2023-01-08T16:05:07.666Z,99938.31
2023-01-08T16:07:34.307Z,99947.63
2023-01-08T16:10:00.835Z,99949.34
2023-01-08T16:12:27.330Z,99940.75
2023-01-08T16:14:53.918Z,99944.59
2023-01-08T16:17:20.433Z,99939.13
2023-01-08T16:19:46.943Z,99938.06
2023-01-08T16:22:13.458Z,99936.94
2023-01-08T16:24:40.714Z,99933.31
2023-01-08T16:27:08.591Z,99929.03
2023-01-08T16:29:35.083Z,99925.81
2023-01-08T16:32:01.615Z,99924.34
2023-01-08T16:34:28.120Z,99924.75
2023-01-08T16:36:54.722Z,99914.06
2023-01-08T16:39:22.009Z,99916.84
2023-01-08T16:41:48.597Z,99930.00
2023-01-08T16:44:20.464Z,99924.06
2023-01-08T16:46:47.550Z,99922.75
2023-01-08T16:49:17.610Z,99919.09
2023-01-08T16:51:44.511Z,99910.06
2023-01-08T16:54:17.501Z,99918.00
2023-01-08T16:56:44.387Z,99911.22
2023-01-08T16:59:22.192Z,99903.63
2023-01-08T17:01:50.239Z,99896.69
2023-01-08T17:04:16.879Z,99901.56
2023-01-08T17:06:43.391Z,99898.16
2023-01-08T17:09:11.654Z,99901.19
2023-01-08T17:11:38.754Z,99890.00
2023-01-08T17:14:05.255Z,99893.03
2023-01-08T17:16:31.763Z,99882.97
2023-01-08T17:18:58.364Z,99884.59
2023-01-08T17:21:24.916Z,99882.16
2023-01-08T17:23:51.612Z,99877.91
2023-01-08T17:26:18.341Z,99873.41
2023-01-08T17:28:45.145Z,99874.19
2023-01-08T17:31:14.340Z,99872.78
2023-01-08T17:33:41.455Z,99874.00
2023-01-08T17:36:15.582Z,99866.63
2023-01-08T17:38:46.758Z,99868.28
2023-01-08T17:41:33.461Z,99877.91
2023-01-08T17:44:00.239Z,99864.78
2023-01-08T17:46:27.413Z,99856.78
2023-01-08T17:48:54.248Z,99851.31
2023-01-08T17:51:20.884Z,99849.94
2023-01-08T17:53:47.525Z,99850.81
2023-01-08T17:56:14.056Z,99855.25
2023-01-08T17:58:40.673Z,99852.19
2023-01-08T18:01:12.951Z,99848.03
2023-01-08T18:03:39.501Z,99852.28
2023-01-08T18:06:10.502Z,99856.97
2023-01-08T18:08:38.012Z,99850.28
2023-01-08T18:11:07.133Z,99845.34
2023-01-08T18:13:33.655Z,99852.28
2023-01-08T18:16:05.184Z,99853.16
2023-01-08T18:18:31.787Z,99851.22
2023-01-08T18:20:58.313Z,99851.56
2023-01-08T18:23:24.858Z,99849.59
2023-01-08T18:30:28.997Z,99854.34
2023-01-08T18:32:55.522Z,99856.38
2023-01-08T18:35:22.027Z,99842.13
2023-01-08T18:37:48.511Z,99843.00
2023-01-08T18:40:15.311Z,99829.94
2023-01-08T18:42:42.055Z,99828.31
2023-01-08T18:45:10.913Z,99829.06
2023-01-08T18:47:38.314Z,99832.41
2023-01-08T18:50:05.356Z,99827.78
2023-01-08T18:52:32.122Z,99827.59
2023-01-08T18:54:58.779Z,99820.31
2023-01-08T18:57:26.628Z,99822.31
2023-01-08T18:59:53.135Z,99823.44
2023-01-08T19:02:22.091Z,99818.91
2023-01-08T19:04:49.493Z,99817.16
2023-01-08T19:07:16.769Z,99826.53
2023-01-08T19:09:43.647Z,99819.78
2023-01-08T19:12:10.200Z,99819.69
2023-01-08T19:14:37.212Z,99822.38
2023-01-08T19:17:04.554Z,99817.97
2023-01-08T19:19:31.230Z,99823.25
2023-01-08T19:21:57.774Z,99815.63
2023-01-08T19:24:24.355Z,99811.69
2023-01-08T19:26:50.975Z,99809.81
2023-01-08T19:29:17.517Z,99798.06
2023-01-08T19:31:44.108Z,99804.06
2023-01-08T19:34:10.663Z,99803.28
2023-01-08T19:36:37.172Z,99801.72
2023-01-08T19:39:04.907Z,99804.06
2023-01-08T19:41:50.145Z,99815.53
2023-01-08T19:44:16.778Z,99814.41
2023-01-08T19:46:43.289Z,99816.47
2023-01-08T19:49:09.808Z,99802.06
2023-01-08T19:51:36.251Z,99813.97
2023-01-08T19:54:02.867Z,99802.31
2023-01-08T19:56:29.434Z,99800.31
2023-01-08T19:58:57.043Z,99800.59
2023-01-08T20:01:26.272Z,99790.31
2023-01-08T20:03:53.929Z,99784.94
2023-01-08T20:06:23.626Z,99774.84
2023-01-08T20:08:53.206Z,99771.13
2023-01-08T20:11:20.580Z,99775.75
2023-01-08T20:13:47.210Z,99770.00
2023-01-08T20:16:16.084Z,99768.72
2023-01-08T20:18:42.850Z,99780.50
2023-01-08T20:21:15.560Z,99778.94
2023-01-08T20:23:43.623Z,99761.72
2023-01-08T20:26:14.045Z,99758.16
2023-01-08T20:28:41.329Z,99763.63
2023-01-08T20:31:18.726Z,99760.22
2023-01-08T20:33:46.013Z,99758.16
2023-01-08T20:36:17.267Z,99757.09
2023-01-08T20:38:44.637Z,99757.88
2023-01-08T20:41:12.022Z,99751.19
2023-01-08T20:43:39.815Z,99751.63
2023-01-08T20:46:07.437Z,99743.69
2023-01-08T20:48:36.942Z,99745.97
2023-01-08T20:51:12.329Z,99744.50
2023-01-08T20:53:39.803Z,99742.47
2023-01-08T20:56:08.862Z,99743.03
2023-01-08T20:58:37.205Z,99737.75
2023-01-08T21:01:08.144Z,99737.75
2023-01-08T21:03:36.049Z,99726.19
2023-01-08T21:06:11.579Z,99731.22
2023-01-08T21:08:39.696Z,99730.91
2023-01-08T21:11:07.795Z,99732.13
2023-01-08T21:13:34.524Z,99726.09
2023-01-08T21:16:07.961Z,99724.81
2023-01-08T21:18:34.749Z,99725.59
2023-01-08T21:21:05.585Z,99731.97
2023-01-08T21:23:33.711Z,99724.91
2023-01-08T21:26:05.781Z,99722.13
2023-01-08T21:28:32.601Z,99710.34
2023-01-08T21:31:13.505Z,99708.88
2023-01-08T21:33:40.433Z,99710.34
2023-01-08T21:36:09.327Z,99708.88
2023-01-08T21:38:36.842Z,99713.31
2023-01-08T21:41:06.296Z,99711.13
2023-01-08T21:43:51.655Z,99708.09
2023-01-08T21:46:18.365Z,99710.28
2023-01-08T21:48:49.859Z,99703.09
2023-01-08T21:51:35.214Z,99705.47
2023-01-08T21:54:02.050Z,99695.69
2023-01-08T21:56:29.601Z,99679.22
2023-01-08T21:58:56.429Z,99672.88
2023-01-08T22:01:23.964Z,99674.09
2023-01-08T22:03:50.692Z,99673.56
2023-01-08T22:06:17.198Z,99663.06
2023-01-08T22:08:45.202Z,99660.63
2023-01-08T22:11:11.690Z,99657.69
2023-01-08T22:13:39.308Z,99654.38
2023-01-08T22:16:11.405Z,99648.25
2023-01-08T22:18:38.594Z,99649.88
2023-01-08T22:21:09.906Z,99641.38
2023-01-08T22:23:37.308Z,99652.72
2023-01-08T22:26:11.741Z,99650.84
2023-01-08T22:28:39.548Z,99651.69
2023-01-08T22:31:12.516Z,99655.50
2023-01-08T22:33:39.964Z,99645.00
2023-01-08T22:36:08.804Z,99643.63
2023-01-08T22:38:35.959Z,99638.06
2023-01-08T22:41:02.675Z,99640.75
2023-01-08T22:43:29.276Z,99641.19
2023-01-08T22:45:57.576Z,99642.50
2023-01-08T22:48:28.091Z,99641.34
2023-01-08T22:50:55.502Z,99633.47
2023-01-08T22:53:22.105Z,99628.00
2023-01-08T22:55:48.700Z,99622.78
2023-01-08T22:58:16.958Z,99618.81
2023-01-08T23:00:44.316Z,99609.88
2023-01-08T23:03:11.410Z,99609.09
2023-01-08T23:05:38.365Z,99610.47
2023-01-08T23:08:07.431Z,99612.56
2023-01-08T23:10:34.406Z,99614.56
2023-01-08T23:13:01.224Z,99611.59
2023-01-08T23:15:28.073Z,99612.69
2023-01-08T23:17:58.738Z,99602.31
2023-01-08T23:20:25.543Z,99597.53
2023-01-08T23:22:52.150Z,99597.03
2023-01-08T23:25:18.784Z,99585.66
2023-01-08T23:27:45.654Z,99588.84
2023-01-08T23:30:12.459Z,99584.59
2023-01-08T23:32:39.958Z,99582.16
2023-01-08T23:35:06.908Z,99586.78
2023-01-08T23:37:34.265Z,99578.25
2023-01-08T23:40:00.909Z,99582.66
2023-01-08T23:42:29.277Z,99577.19
2023-01-08T23:44:56.012Z,99584.41
2023-01-08T23:47:22.572Z,99577.81
2023-01-08T23:49:49.165Z,99572.59
2023-01-08T23:52:15.735Z,99569.69
2023-01-08T23:54:42.348Z,99567.09
2023-01-08T23:57:08.994Z,99562.25
2023-01-08T23:59:35.545Z,99569.88
